sensor_id;sensor_type;location;lat;lon;timestamp;P1;durP1;ratioP1;P2;durP2;ratioP2
25045;SDS011;13044;49.304;12.840;2022-08-21T00:00:48;42.05;;;29.17;;
25045;SDS011;13044;49.304;12.840;2022-08-21T00:03:15;43.60;;;30.63;;
25045;SDS011;13044;49.304;12.840;2022-08-21T00:05:44;42.03;;;28.98;;
25045;SDS011;13044;49.304;12.840;2022-08-21T00:08:19;41.45;;;29.40;;
25045;SDS011;13044;49.304;12.840;2022-08-21T00:10:47;45.38;;;29.98;;
25045;SDS011;13044;49.304;12.840;2022-08-21T00:13:16;45.33;;;30.60;;
25045;SDS011;13044;49.304;12.840;2022-08-21T00:15:44;43.70;;;29.02;;
25045;SDS011;13044;49.304;12.840;2022-08-21T00:18:11;44.00;;;29.10;;
25045;SDS011;13044;49.304;12.840;2022-08-21T00:20:42;45.78;;;29.92;;
25045;SDS011;13044;49.304;12.840;2022-08-21T00:23:10;43.65;;;28.73;;
25045;SDS011;13044;49.304;12.840;2022-08-21T00:25:39;38.92;;;27.40;;
25045;SDS011;13044;49.304;12.840;2022-08-21T00:28:08;50.50;;;29.95;;
25045;SDS011;13044;49.304;12.840;2022-08-21T00:30:35;41.97;;;30.02;;
25045;SDS011;13044;49.304;12.840;2022-08-21T00:33:03;42.72;;;28.48;;
25045;SDS011;13044;49.304;12.840;2022-08-21T00:35:32;46.60;;;30.13;;
25045;SDS011;13044;49.304;12.840;2022-08-21T00:38:03;44.50;;;31.83;;
25045;SDS011;13044;49.304;12.840;2022-08-21T00:41:16;46.55;;;29.90;;
25045;SDS011;13044;49.304;12.840;2022-08-21T00:43:47;46.20;;;30.30;;
25045;SDS011;13044;49.304;12.840;2022-08-21T00:46:14;47.63;;;30.65;;
25045;SDS011;13044;49.304;12.840;2022-08-21T00:48:41;43.88;;;31.00;;
25045;SDS011;13044;49.304;12.840;2022-08-21T00:51:11;48.03;;;29.80;;
25045;SDS011;13044;49.304;12.840;2022-08-21T00:53:49;47.05;;;31.10;;
25045;SDS011;13044;49.304;12.840;2022-08-21T00:56:22;44.92;;;31.27;;
25045;SDS011;13044;49.304;12.840;2022-08-21T00:58:51;45.55;;;32.13;;
25045;SDS011;13044;49.304;12.840;2022-08-21T01:01:20;46.90;;;31.35;;
25045;SDS011;13044;49.304;12.840;2022-08-21T01:03:47;48.28;;;30.77;;
25045;SDS011;13044;49.304;12.840;2022-08-21T01:06:15;44.45;;;31.52;;
25045;SDS011;13044;49.304;12.840;2022-08-21T01:08:42;42.42;;;29.13;;
25045;SDS011;13044;49.304;12.840;2022-08-21T01:11:12;41.20;;;30.30;;
25045;SDS011;13044;49.304;12.840;2022-08-21T01:13:41;39.95;;;29.52;;
25045;SDS011;13044;49.304;12.840;2022-08-21T01:16:14;41.67;;;30.13;;
25045;SDS011;13044;49.304;12.840;2022-08-21T01:18:44;43.70;;;29.83;;
25045;SDS011;13044;49.304;12.840;2022-08-21T01:21:20;44.10;;;29.67;;
25045;SDS011;13044;49.304;12.840;2022-08-21T01:23:54;45.08;;;28.55;;
25045;SDS011;13044;49.304;12.840;2022-08-21T01:26:24;46.53;;;30.92;;
25045;SDS011;13044;49.304;12.840;2022-08-21T01:31:40;49.85;;;30.75;;
25045;SDS011;13044;49.304;12.840;2022-08-21T01:34:08;45.35;;;29.45;;
25045;SDS011;13044;49.304;12.840;2022-08-21T01:36:36;41.80;;;28.80;;
25045;SDS011;13044;49.304;12.840;2022-08-21T01:39:03;44.08;;;28.88;;
25045;SDS011;13044;49.304;12.840;2022-08-21T01:41:31;40.80;;;29.23;;
25045;SDS011;13044;49.304;12.840;2022-08-21T01:43:58;42.83;;;28.92;;
25045;SDS011;13044;49.304;12.840;2022-08-21T01:46:25;40.97;;;28.67;;
25045;SDS011;13044;49.304;12.840;2022-08-21T01:48:52;40.92;;;28.48;;
25045;SDS011;13044;49.304;12.840;2022-08-21T01:51:19;45.47;;;30.13;;
25045;SDS011;13044;49.304;12.840;2022-08-21T01:53:46;42.95;;;29.33;;
25045;SDS011;13044;49.304;12.840;2022-08-21T01:56:14;42.38;;;27.80;;
25045;SDS011;13044;49.304;12.840;2022-08-21T01:58:44;41.22;;;28.42;;
25045;SDS011;13044;49.304;12.840;2022-08-21T02:01:13;43.50;;;28.83;;
25045;SDS011;13044;49.304;12.840;2022-08-21T02:03:40;37.35;;;25.88;;
25045;SDS011;13044;49.304;12.840;2022-08-21T02:06:10;46.10;;;27.95;;
25045;SDS011;13044;49.304;12.840;2022-08-21T02:08:43;42.58;;;27.30;;
25045;SDS011;13044;49.304;12.840;2022-08-21T02:11:11;41.42;;;27.33;;
25045;SDS011;13044;49.304;12.840;2022-08-21T02:13:38;44.00;;;27.65;;
25045;SDS011;13044;49.304;12.840;2022-08-21T02:16:05;43.28;;;28.45;;
25045;SDS011;13044;49.304;12.840;2022-08-21T02:18:34;39.90;;;26.17;;
25045;SDS011;13044;49.304;12.840;2022-08-21T02:21:01;43.15;;;26.90;;
25045;SDS011;13044;49.304;12.840;2022-08-21T02:23:29;40.67;;;26.63;;
25045;SDS011;13044;49.304;12.840;2022-08-21T02:25:56;40.70;;;25.58;;
25045;SDS011;13044;49.304;12.840;2022-08-21T02:28:25;37.03;;;25.00;;
25045;SDS011;13044;49.304;12.840;2022-08-21T02:30:53;37.45;;;25.33;;
25045;SDS011;13044;49.304;12.840;2022-08-21T02:33:22;36.15;;;25.65;;
25045;SDS011;13044;49.304;12.840;2022-08-21T02:35:50;34.08;;;23.38;;
25045;SDS011;13044;49.304;12.840;2022-08-21T02:38:19;36.53;;;23.60;;
25045;SDS011;13044;49.304;12.840;2022-08-21T02:40:50;33.17;;;23.45;;
25045;SDS011;13044;49.304;12.840;2022-08-21T02:43:19;33.35;;;25.23;;
25045;SDS011;13044;49.304;12.840;2022-08-21T02:45:49;36.80;;;25.40;;
25045;SDS011;13044;49.304;12.840;2022-08-21T02:48:18;42.33;;;25.60;;
25045;SDS011;13044;49.304;12.840;2022-08-21T02:50:51;37.40;;;25.27;;
25045;SDS011;13044;49.304;12.840;2022-08-21T02:53:40;39.95;;;25.42;;
25045;SDS011;13044;49.304;12.840;2022-08-21T02:56:09;41.30;;;25.15;;
25045;SDS011;13044;49.304;12.840;2022-08-21T02:58:41;39.63;;;24.38;;
25045;SDS011;13044;49.304;12.840;2022-08-21T03:01:11;34.70;;;24.60;;
25045;SDS011;13044;49.304;12.840;2022-08-21T03:03:40;40.85;;;24.02;;
25045;SDS011;13044;49.304;12.840;2022-08-21T03:06:10;36.50;;;24.88;;
25045;SDS011;13044;49.304;12.840;2022-08-21T03:08:39;41.67;;;26.20;;
25045;SDS011;13044;49.304;12.840;2022-08-21T03:11:07;32.97;;;24.05;;
25045;SDS011;13044;49.304;12.840;2022-08-21T03:13:35;36.53;;;23.73;;
25045;SDS011;13044;49.304;12.840;2022-08-21T03:16:02;35.38;;;24.55;;
25045;SDS011;13044;49.304;12.840;2022-08-21T03:18:30;38.47;;;25.55;;
25045;SDS011;13044;49.304;12.840;2022-08-21T03:20:57;34.67;;;23.17;;
25045;SDS011;13044;49.304;12.840;2022-08-21T03:23:24;33.72;;;22.13;;
25045;SDS011;13044;49.304;12.840;2022-08-21T03:25:57;34.75;;;23.42;;
25045;SDS011;13044;49.304;12.840;2022-08-21T03:28:25;34.15;;;23.50;;
25045;SDS011;13044;49.304;12.840;2022-08-21T03:30:52;33.83;;;23.65;;
25045;SDS011;13044;49.304;12.840;2022-08-21T03:33:20;34.13;;;23.13;;
25045;SDS011;13044;49.304;12.840;2022-08-21T03:35:51;34.35;;;21.90;;
25045;SDS011;13044;49.304;12.840;2022-08-21T03:38:34;33.95;;;22.60;;
25045;SDS011;13044;49.304;12.840;2022-08-21T03:41:03;31.92;;;22.90;;
25045;SDS011;13044;49.304;12.840;2022-08-21T03:43:31;34.22;;;22.77;;
25045;SDS011;13044;49.304;12.840;2022-08-21T03:46:00;35.17;;;23.58;;
25045;SDS011;13044;49.304;12.840;2022-08-21T03:48:29;33.72;;;22.42;;
25045;SDS011;13044;49.304;12.840;2022-08-21T03:50:57;35.88;;;23.80;;
25045;SDS011;13044;49.304;12.840;2022-08-21T03:53:24;30.08;;;21.65;;
25045;SDS011;13044;49.304;12.840;2022-08-21T03:55:51;34.60;;;23.52;;
25045;SDS011;13044;49.304;12.840;2022-08-21T03:58:21;34.28;;;23.67;;
25045;SDS011;13044;49.304;12.840;2022-08-21T04:00:51;37.53;;;23.98;;
25045;SDS011;13044;49.304;12.840;2022-08-21T04:03:21;33.47;;;24.48;;
25045;SDS011;13044;49.304;12.840;2022-08-21T04:05:48;34.25;;;24.17;;
25045;SDS011;13044;49.304;12.840;2022-08-21T04:08:16;32.72;;;23.67;;
25045;SDS011;13044;49.304;12.840;2022-08-21T04:10:45;35.40;;;22.48;;
25045;SDS011;13044;49.304;12.840;2022-08-21T04:13:16;38.90;;;24.60;;
25045;SDS011;13044;49.304;12.840;2022-08-21T04:15:43;35.35;;;24.52;;
25045;SDS011;13044;49.304;12.840;2022-08-21T04:18:10;33.70;;;23.60;;
25045;SDS011;13044;49.304;12.840;2022-08-21T04:27:18;34.33;;;23.33;;
25045;SDS011;13044;49.304;12.840;2022-08-21T04:32:24;33.85;;;22.70;;
25045;SDS011;13044;49.304;12.840;2022-08-21T04:34:59;34.97;;;23.25;;
25045;SDS011;13044;49.304;12.840;2022-08-21T04:37:28;35.42;;;23.60;;
25045;SDS011;13044;49.304;12.840;2022-08-21T04:39:56;37.72;;;23.98;;
25045;SDS011;13044;49.304;12.840;2022-08-21T04:42:24;35.38;;;22.67;;
25045;SDS011;13044;49.304;12.840;2022-08-21T04:44:52;39.38;;;23.52;;
25045;SDS011;13044;49.304;12.840;2022-08-21T04:47:22;34.63;;;23.48;;
25045;SDS011;13044;49.304;12.840;2022-08-21T04:50:10;34.40;;;23.80;;
25045;SDS011;13044;49.304;12.840;2022-08-21T04:52:37;41.70;;;23.95;;
25045;SDS011;13044;49.304;12.840;2022-08-21T04:55:04;32.65;;;23.10;;
25045;SDS011;13044;49.304;12.840;2022-08-21T04:57:31;30.83;;;22.75;;
25045;SDS011;13044;49.304;12.840;2022-08-21T05:00:14;32.55;;;23.08;;
25045;SDS011;13044;49.304;12.840;2022-08-21T05:02:44;35.58;;;23.17;;
25045;SDS011;13044;49.304;12.840;2022-08-21T05:05:13;34.47;;;22.80;;
25045;SDS011;13044;49.304;12.840;2022-08-21T05:07:42;35.38;;;22.05;;
25045;SDS011;13044;49.304;12.840;2022-08-21T05:10:10;33.80;;;22.60;;
25045;SDS011;13044;49.304;12.840;2022-08-21T05:12:39;38.40;;;23.23;;
25045;SDS011;13044;49.304;12.840;2022-08-21T05:15:08;35.08;;;22.98;;
25045;SDS011;13044;49.304;12.840;2022-08-21T05:17:39;33.65;;;23.45;;
25045;SDS011;13044;49.304;12.840;2022-08-21T05:20:08;36.78;;;22.33;;
25045;SDS011;13044;49.304;12.840;2022-08-21T05:22:36;34.88;;;23.27;;
25045;SDS011;13044;49.304;12.840;2022-08-21T05:25:04;38.88;;;23.60;;
25045;SDS011;13044;49.304;12.840;2022-08-21T05:27:35;34.20;;;23.73;;
25045;SDS011;13044;49.304;12.840;2022-08-21T05:30:05;39.33;;;23.95;;
25045;SDS011;13044;49.304;12.840;2022-08-21T05:32:34;33.15;;;24.00;;
25045;SDS011;13044;49.304;12.840;2022-08-21T05:35:03;36.22;;;23.98;;
25045;SDS011;13044;49.304;12.840;2022-08-21T05:37:32;37.08;;;23.92;;
25045;SDS011;13044;49.304;12.840;2022-08-21T05:40:00;37.22;;;24.38;;
25045;SDS011;13044;49.304;12.840;2022-08-21T05:42:47;33.33;;;22.80;;
25045;SDS011;13044;49.304;12.840;2022-08-21T05:45:20;37.83;;;24.02;;
25045;SDS011;13044;49.304;12.840;2022-08-21T05:48:13;36.28;;;23.98;;
25045;SDS011;13044;49.304;12.840;2022-08-21T05:50:48;38.78;;;24.17;;
25045;SDS011;13044;49.304;12.840;2022-08-21T05:53:18;36.67;;;22.85;;
25045;SDS011;13044;49.304;12.840;2022-08-21T05:55:47;44.88;;;26.05;;
25045;SDS011;13044;49.304;12.840;2022-08-21T05:58:16;39.38;;;24.90;;
25045;SDS011;13044;49.304;12.840;2022-08-21T06:00:46;41.05;;;24.77;;
25045;SDS011;13044;49.304;12.840;2022-08-21T06:03:20;37.03;;;24.15;;
25045;SDS011;13044;49.304;12.840;2022-08-21T06:05:53;40.55;;;24.27;;
25045;SDS011;13044;49.304;12.840;2022-08-21T06:08:22;33.30;;;22.63;;
25045;SDS011;13044;49.304;12.840;2022-08-21T06:10:49;38.63;;;24.90;;
25045;SDS011;13044;49.304;12.840;2022-08-21T06:13:18;38.05;;;24.20;;
25045;SDS011;13044;49.304;12.840;2022-08-21T06:15:46;38.95;;;24.58;;
25045;SDS011;13044;49.304;12.840;2022-08-21T06:18:14;37.63;;;25.23;;
25045;SDS011;13044;49.304;12.840;2022-08-21T06:20:42;36.25;;;24.65;;
25045;SDS011;13044;49.304;12.840;2022-08-21T06:23:09;43.05;;;26.15;;
25045;SDS011;13044;49.304;12.840;2022-08-21T06:25:36;39.22;;;26.42;;
25045;SDS011;13044;49.304;12.840;2022-08-21T06:28:03;41.70;;;25.95;;
25045;SDS011;13044;49.304;12.840;2022-08-21T06:30:33;39.33;;;24.70;;
25045;SDS011;13044;49.304;12.840;2022-08-21T06:33:02;40.38;;;25.55;;
25045;SDS011;13044;49.304;12.840;2022-08-21T06:35:29;42.92;;;25.23;;
25045;SDS011;13044;49.304;12.840;2022-08-21T06:37:56;34.70;;;23.23;;
25045;SDS011;13044;49.304;12.840;2022-08-21T06:40:24;38.47;;;25.27;;
25045;SDS011;13044;49.304;12.840;2022-08-21T06:42:55;36.28;;;23.52;;
25045;SDS011;13044;49.304;12.840;2022-08-21T06:45:26;35.55;;;22.80;;
25045;SDS011;13044;49.304;12.840;2022-08-21T06:47:57;32.65;;;22.13;;
25045;SDS011;13044;49.304;12.840;2022-08-21T06:50:24;32.28;;;23.42;;
25045;SDS011;13044;49.304;12.840;2022-08-21T06:52:57;32.25;;;22.63;;
25045;SDS011;13044;49.304;12.840;2022-08-21T06:55:27;29.17;;;20.55;;
25045;SDS011;13044;49.304;12.840;2022-08-21T06:57:54;34.40;;;22.92;;
25045;SDS011;13044;49.304;12.840;2022-08-21T07:00:21;29.35;;;22.50;;
25045;SDS011;13044;49.304;12.840;2022-08-21T07:02:48;29.17;;;22.08;;
25045;SDS011;13044;49.304;12.840;2022-08-21T07:05:15;33.08;;;22.38;;
25045;SDS011;13044;49.304;12.840;2022-08-21T07:07:44;31.83;;;22.92;;
25045;SDS011;13044;49.304;12.840;2022-08-21T07:10:11;31.85;;;22.55;;
25045;SDS011;13044;49.304;12.840;2022-08-21T07:12:50;28.38;;;21.60;;
25045;SDS011;13044;49.304;12.840;2022-08-21T07:15:27;31.63;;;22.08;;
25045;SDS011;13044;49.304;12.840;2022-08-21T07:17:56;30.48;;;22.30;;
25045;SDS011;13044;49.304;12.840;2022-08-21T07:20:25;33.10;;;20.15;;
25045;SDS011;13044;49.304;12.840;2022-08-21T07:22:54;28.50;;;20.65;;
25045;SDS011;13044;49.304;12.840;2022-08-21T07:25:24;26.90;;;20.02;;
25045;SDS011;13044;49.304;12.840;2022-08-21T07:27:51;28.58;;;21.02;;
25045;SDS011;13044;49.304;12.840;2022-08-21T07:30:18;28.40;;;20.42;;
25045;SDS011;13044;49.304;12.840;2022-08-21T07:32:46;26.50;;;19.50;;
25045;SDS011;13044;49.304;12.840;2022-08-21T07:35:15;28.02;;;20.40;;
25045;SDS011;13044;49.304;12.840;2022-08-21T07:37:45;24.27;;;19.60;;
25045;SDS011;13044;49.304;12.840;2022-08-21T07:40:12;26.38;;;20.58;;
25045;SDS011;13044;49.304;12.840;2022-08-21T07:42:44;25.38;;;19.83;;
25045;SDS011;13044;49.304;12.840;2022-08-21T07:45:13;26.15;;;19.15;;
25045;SDS011;13044;49.304;12.840;2022-08-21T07:47:41;26.30;;;20.00;;
25045;SDS011;13044;49.304;12.840;2022-08-21T07:50:09;25.40;;;19.60;;
25045;SDS011;13044;49.304;12.840;2022-08-21T07:52:38;25.60;;;19.42;;
25045;SDS011;13044;49.304;12.840;2022-08-21T07:55:07;27.85;;;20.60;;
25045;SDS011;13044;49.304;12.840;2022-08-21T07:57:38;30.02;;;20.00;;
25045;SDS011;13044;49.304;12.840;2022-08-21T08:00:07;25.98;;;20.50;;
25045;SDS011;13044;49.304;12.840;2022-08-21T08:02:39;29.58;;;20.27;;
25045;SDS011;13044;49.304;12.840;2022-08-21T08:05:08;29.27;;;19.63;;
25045;SDS011;13044;49.304;12.840;2022-08-21T08:07:37;24.77;;;18.85;;
25045;SDS011;13044;49.304;12.840;2022-08-21T08:10:05;25.70;;;18.35;;
25045;SDS011;13044;49.304;12.840;2022-08-21T08:12:37;28.70;;;19.20;;
25045;SDS011;13044;49.304;12.840;2022-08-21T08:15:08;25.35;;;18.02;;
25045;SDS011;13044;49.304;12.840;2022-08-21T08:17:45;23.02;;;17.02;;
25045;SDS011;13044;49.304;12.840;2022-08-21T08:20:13;22.63;;;16.73;;
25045;SDS011;13044;49.304;12.840;2022-08-21T08:22:42;21.42;;;16.52;;
25045;SDS011;13044;49.304;12.840;2022-08-21T08:25:15;22.52;;;17.98;;
25045;SDS011;13044;49.304;12.840;2022-08-21T08:27:44;24.73;;;16.23;;
25045;SDS011;13044;49.304;12.840;2022-08-21T08:30:13;22.98;;;16.25;;
25045;SDS011;13044;49.304;12.840;2022-08-21T08:32:41;23.50;;;17.23;;
25045;SDS011;13044;49.304;12.840;2022-08-21T08:35:09;24.17;;;16.50;;
25045;SDS011;13044;49.304;12.840;2022-08-21T08:37:37;23.10;;;16.98;;
25045;SDS011;13044;49.304;12.840;2022-08-21T08:40:10;23.45;;;16.77;;
25045;SDS011;13044;49.304;12.840;2022-08-21T08:43:11;21.88;;;16.75;;
25045;SDS011;13044;49.304;12.840;2022-08-21T08:45:40;21.85;;;16.58;;
25045;SDS011;13044;49.304;12.840;2022-08-21T08:48:26;23.52;;;17.90;;
25045;SDS011;13044;49.304;12.840;2022-08-21T08:51:24;21.08;;;15.98;;
25045;SDS011;13044;49.304;12.840;2022-08-21T08:54:26;23.33;;;16.05;;
25045;SDS011;13044;49.304;12.840;2022-08-21T08:57:00;22.50;;;16.25;;
25045;SDS011;13044;49.304;12.840;2022-08-21T08:59:37;21.20;;;16.98;;
25045;SDS011;13044;49.304;12.840;2022-08-21T09:02:10;20.73;;;15.02;;
25045;SDS011;13044;49.304;12.840;2022-08-21T09:04:39;23.40;;;16.02;;
25045;SDS011;13044;49.304;12.840;2022-08-21T09:07:12;20.73;;;15.57;;
25045;SDS011;13044;49.304;12.840;2022-08-21T09:12:56;19.92;;;15.80;;
25045;SDS011;13044;49.304;12.840;2022-08-21T09:15:32;20.88;;;15.65;;
25045;SDS011;13044;49.304;12.840;2022-08-21T09:18:25;18.92;;;14.77;;
25045;SDS011;13044;49.304;12.840;2022-08-21T09:27:02;20.83;;;14.20;;
25045;SDS011;13044;49.304;12.840;2022-08-21T09:29:36;25.58;;;13.60;;
25045;SDS011;13044;49.304;12.840;2022-08-21T09:32:16;18.92;;;13.80;;
25045;SDS011;13044;49.304;12.840;2022-08-21T09:35:08;19.40;;;14.80;;
25045;SDS011;13044;49.304;12.840;2022-08-21T09:37:57;16.70;;;13.45;;
25045;SDS011;13044;49.304;12.840;2022-08-21T09:43:06;18.50;;;13.27;;
25045;SDS011;13044;49.304;12.840;2022-08-21T09:45:48;18.17;;;12.90;;
25045;SDS011;13044;49.304;12.840;2022-08-21T09:48:28;16.95;;;12.90;;
25045;SDS011;13044;49.304;12.840;2022-08-21T09:51:06;14.27;;;12.10;;
25045;SDS011;13044;49.304;12.840;2022-08-21T09:53:42;21.33;;;14.60;;
25045;SDS011;13044;49.304;12.840;2022-08-21T09:56:32;14.23;;;12.00;;
25045;SDS011;13044;49.304;12.840;2022-08-21T09:59:40;14.65;;;11.55;;
25045;SDS011;13044;49.304;12.840;2022-08-21T10:02:20;19.52;;;13.23;;
25045;SDS011;13044;49.304;12.840;2022-08-21T10:04:59;16.83;;;12.32;;
25045;SDS011;13044;49.304;12.840;2022-08-21T10:07:35;16.85;;;12.05;;
25045;SDS011;13044;49.304;12.840;2022-08-21T10:10:05;16.85;;;13.43;;
25045;SDS011;13044;49.304;12.840;2022-08-21T10:13:03;15.73;;;12.65;;
25045;SDS011;13044;49.304;12.840;2022-08-21T10:19:11;15.50;;;12.18;;
25045;SDS011;13044;49.304;12.840;2022-08-21T10:22:18;13.50;;;11.02;;
25045;SDS011;13044;49.304;12.840;2022-08-21T10:25:33;14.35;;;10.88;;
25045;SDS011;13044;49.304;12.840;2022-08-21T10:28:32;10.50;;;9.40;;
25045;SDS011;13044;49.304;12.840;2022-08-21T10:37:24;11.32;;;9.68;;
25045;SDS011;13044;49.304;12.840;2022-08-21T10:45:36;12.60;;;10.52;;
25045;SDS011;13044;49.304;12.840;2022-08-21T10:48:08;19.52;;;11.27;;
25045;SDS011;13044;49.304;12.840;2022-08-21T10:51:13;18.75;;;13.02;;
25045;SDS011;13044;49.304;12.840;2022-08-21T10:57:11;14.65;;;12.35;;
25045;SDS011;13044;49.304;12.840;2022-08-21T11:00:03;15.68;;;13.35;;
25045;SDS011;13044;49.304;12.840;2022-08-21T11:05:31;22.00;;;16.08;;
25045;SDS011;13044;49.304;12.840;2022-08-21T11:08:09;18.58;;;11.27;;
25045;SDS011;13044;49.304;12.840;2022-08-21T11:10:51;14.40;;;10.50;;
25045;SDS011;13044;49.304;12.840;2022-08-21T11:16:19;16.10;;;10.98;;
25045;SDS011;13044;49.304;12.840;2022-08-21T11:18:57;16.08;;;12.93;;
25045;SDS011;13044;49.304;12.840;2022-08-21T11:21:48;14.07;;;12.50;;
25045;SDS011;13044;49.304;12.840;2022-08-21T11:24:55;16.60;;;12.40;;
25045;SDS011;13044;49.304;12.840;2022-08-21T11:30:19;16.10;;;12.27;;
25045;SDS011;13044;49.304;12.840;2022-08-21T11:36:06;14.40;;;10.52;;
25045;SDS011;13044;49.304;12.840;2022-08-21T11:42:24;10.73;;;9.55;;
25045;SDS011;13044;49.304;12.840;2022-08-21T11:50:26;10.65;;;9.38;;
25045;SDS011;13044;49.304;12.840;2022-08-21T11:53:12;10.10;;;9.00;;
25045;SDS011;13044;49.304;12.840;2022-08-21T11:56:06;10.80;;;9.70;;
25045;SDS011;13044;49.304;12.840;2022-08-21T11:58:46;12.40;;;9.50;;
25045;SDS011;13044;49.304;12.840;2022-08-21T12:01:24;12.45;;;9.77;;
25045;SDS011;13044;49.304;12.840;2022-08-21T12:06:44;18.98;;;10.90;;
25045;SDS011;13044;49.304;12.840;2022-08-21T12:15:14;12.50;;;9.05;;
25045;SDS011;13044;49.304;12.840;2022-08-21T12:17:53;13.23;;;10.10;;
25045;SDS011;13044;49.304;12.840;2022-08-21T12:20:39;11.43;;;9.23;;
25045;SDS011;13044;49.304;12.840;2022-08-21T12:23:27;12.02;;;9.38;;
25045;SDS011;13044;49.304;12.840;2022-08-21T12:26:15;13.43;;;9.02;;
25045;SDS011;13044;49.304;12.840;2022-08-21T12:29:05;11.52;;;8.93;;
25045;SDS011;13044;49.304;12.840;2022-08-21T12:32:02;9.27;;;8.38;;
25045;SDS011;13044;49.304;12.840;2022-08-21T12:34:38;11.40;;;9.57;;
25045;SDS011;13044;49.304;12.840;2022-08-21T12:37:17;10.80;;;9.10;;
25045;SDS011;13044;49.304;12.840;2022-08-21T12:42:59;9.52;;;8.50;;
25045;SDS011;13044;49.304;12.840;2022-08-21T12:46:02;10.77;;;8.50;;
25045;SDS011;13044;49.304;12.840;2022-08-21T12:48:25;10.95;;;8.57;;
25045;SDS011;13044;49.304;12.840;2022-08-21T12:51:09;12.55;;;8.73;;
25045;SDS011;13044;49.304;12.840;2022-08-21T12:53:56;9.30;;;7.70;;
25045;SDS011;13044;49.304;12.840;2022-08-21T12:56:26;8.88;;;7.95;;
25045;SDS011;13044;49.304;12.840;2022-08-21T12:59:04;8.95;;;7.95;;
25045;SDS011;13044;49.304;12.840;2022-08-21T13:04:19;10.18;;;8.40;;
25045;SDS011;13044;49.304;12.840;2022-08-21T13:07:04;9.52;;;8.52;;
25045;SDS011;13044;49.304;12.840;2022-08-21T13:09:59;8.52;;;7.65;;
25045;SDS011;13044;49.304;12.840;2022-08-21T13:12:34;8.25;;;7.28;;
25045;SDS011;13044;49.304;12.840;2022-08-21T13:15:03;9.95;;;8.40;;
25045;SDS011;13044;49.304;12.840;2022-08-21T13:17:35;10.77;;;8.20;;
25045;SDS011;13044;49.304;12.840;2022-08-21T13:20:18;9.27;;;7.57;;
25045;SDS011;13044;49.304;12.840;2022-08-21T13:22:51;9.13;;;7.22;;
25045;SDS011;13044;49.304;12.840;2022-08-21T13:25:19;9.93;;;7.57;;
25045;SDS011;13044;49.304;12.840;2022-08-21T13:28:06;9.85;;;7.30;;
25045;SDS011;13044;49.304;12.840;2022-08-21T13:30:48;7.93;;;7.13;;
25045;SDS011;13044;49.304;12.840;2022-08-21T13:33:22;8.60;;;7.20;;
25045;SDS011;13044;49.304;12.840;2022-08-21T13:36:10;7.55;;;6.75;;
25045;SDS011;13044;49.304;12.840;2022-08-21T13:38:45;7.28;;;6.47;;
25045;SDS011;13044;49.304;12.840;2022-08-21T13:43:46;8.02;;;6.90;;
25045;SDS011;13044;49.304;12.840;2022-08-21T13:48:55;7.82;;;6.53;;
25045;SDS011;13044;49.304;12.840;2022-08-21T13:51:25;8.27;;;6.45;;
25045;SDS011;13044;49.304;12.840;2022-08-21T13:53:53;8.85;;;6.55;;
25045;SDS011;13044;49.304;12.840;2022-08-21T13:56:25;7.22;;;6.47;;
25045;SDS011;13044;49.304;12.840;2022-08-21T13:58:57;6.30;;;5.55;;
25045;SDS011;13044;49.304;12.840;2022-08-21T14:01:31;8.50;;;6.65;;
25045;SDS011;13044;49.304;12.840;2022-08-21T14:06:36;6.60;;;5.97;;
25045;SDS011;13044;49.304;12.840;2022-08-21T14:09:11;10.23;;;7.28;;
25045;SDS011;13044;49.304;12.840;2022-08-21T14:11:54;10.85;;;6.20;;
25045;SDS011;13044;49.304;12.840;2022-08-21T14:14:23;5.40;;;4.80;;
25045;SDS011;13044;49.304;12.840;2022-08-21T14:16:57;7.82;;;5.22;;
25045;SDS011;13044;49.304;12.840;2022-08-21T14:19:41;7.32;;;5.22;;
25045;SDS011;13044;49.304;12.840;2022-08-21T14:25:31;7.80;;;5.10;;
25045;SDS011;13044;49.304;12.840;2022-08-21T14:30:53;6.13;;;5.53;;
25045;SDS011;13044;49.304;12.840;2022-08-21T14:33:26;10.70;;;5.82;;
25045;SDS011;13044;49.304;12.840;2022-08-21T14:35:57;5.78;;;5.13;;
25045;SDS011;13044;49.304;12.840;2022-08-21T14:38:27;7.57;;;5.10;;
25045;SDS011;13044;49.304;12.840;2022-08-21T14:40:57;5.65;;;4.97;;
25045;SDS011;13044;49.304;12.840;2022-08-21T14:43:35;6.38;;;5.43;;
25045;SDS011;13044;49.304;12.840;2022-08-21T14:46:03;8.05;;;5.85;;
25045;SDS011;13044;49.304;12.840;2022-08-21T14:48:29;5.65;;;5.13;;
25045;SDS011;13044;49.304;12.840;2022-08-21T14:50:56;5.78;;;5.18;;
25045;SDS011;13044;49.304;12.840;2022-08-21T14:53:26;5.68;;;5.10;;
25045;SDS011;13044;49.304;12.840;2022-08-21T14:55:53;6.90;;;5.65;;
25045;SDS011;13044;49.304;12.840;2022-08-21T14:58:37;10.43;;;5.75;;
25045;SDS011;13044;49.304;12.840;2022-08-21T15:01:07;6.15;;;5.18;;
25045;SDS011;13044;49.304;12.840;2022-08-21T15:03:37;7.70;;;4.80;;
25045;SDS011;13044;49.304;12.840;2022-08-21T15:06:05;6.47;;;4.97;;
25045;SDS011;13044;49.304;12.840;2022-08-21T15:08:33;7.72;;;5.68;;
25045;SDS011;13044;49.304;12.840;2022-08-21T15:11:01;7.22;;;5.30;;
25045;SDS011;13044;49.304;12.840;2022-08-21T15:13:42;5.32;;;4.85;;
25045;SDS011;13044;49.304;12.840;2022-08-21T15:16:10;6.05;;;5.10;;
25045;SDS011;13044;49.304;12.840;2022-08-21T15:18:38;7.32;;;5.30;;
25045;SDS011;13044;49.304;12.840;2022-08-21T15:21:06;5.53;;;5.03;;
25045;SDS011;13044;49.304;12.840;2022-08-21T15:23:33;6.32;;;4.85;;
25045;SDS011;13044;49.304;12.840;2022-08-21T15:26:05;6.30;;;4.80;;
25045;SDS011;13044;49.304;12.840;2022-08-21T15:28:33;6.43;;;5.10;;
25045;SDS011;13044;49.304;12.840;2022-08-21T15:31:01;8.00;;;4.82;;
25045;SDS011;13044;49.304;12.840;2022-08-21T15:33:27;7.00;;;5.53;;
25045;SDS011;13044;49.304;12.840;2022-08-21T15:35:54;5.25;;;4.75;;
25045;SDS011;13044;49.304;12.840;2022-08-21T15:38:22;6.05;;;5.13;;
25045;SDS011;13044;49.304;12.840;2022-08-21T15:40:49;5.32;;;4.82;;
25045;SDS011;13044;49.304;12.840;2022-08-21T15:45:58;5.53;;;5.00;;
25045;SDS011;13044;49.304;12.840;2022-08-21T15:48:26;5.47;;;4.97;;
25045;SDS011;13044;49.304;12.840;2022-08-21T15:50:53;5.00;;;4.50;;
25045;SDS011;13044;49.304;12.840;2022-08-21T15:53:21;6.47;;;5.03;;
25045;SDS011;13044;49.304;12.840;2022-08-21T15:55:48;6.38;;;4.50;;
25045;SDS011;13044;49.304;12.840;2022-08-21T15:58:15;5.80;;;5.20;;
25045;SDS011;13044;49.304;12.840;2022-08-21T16:00:43;8.88;;;5.13;;
25045;SDS011;13044;49.304;12.840;2022-08-21T16:03:11;7.57;;;4.95;;
25045;SDS011;13044;49.304;12.840;2022-08-21T16:05:43;5.20;;;4.70;;
25045;SDS011;13044;49.304;12.840;2022-08-21T16:08:11;5.80;;;5.30;;
25045;SDS011;13044;49.304;12.840;2022-08-21T16:10:38;5.32;;;4.70;;
25045;SDS011;13044;49.304;12.840;2022-08-21T16:13:07;5.63;;;5.13;;
25045;SDS011;13044;49.304;12.840;2022-08-21T16:15:43;7.32;;;4.60;;
25045;SDS011;13044;49.304;12.840;2022-08-21T16:18:10;10.02;;;6.35;;
25045;SDS011;13044;49.304;12.840;2022-08-21T16:20:37;7.68;;;4.72;;
25045;SDS011;13044;49.304;12.840;2022-08-21T16:23:06;6.10;;;4.57;;